Time;durP1;ratioP1;P1;durP2;ratioP2;P2;SDS_P1;SDS_P2;PMS_P1;PMS_P2;Temp;Humidity;BMP_temperature;BMP_pressure;BME280_temperature;BME280_humidity;BME280_pressure;Samples;Min_cycle;Max_cycle;Signal;HPM_P1;HPM_P2
2021/05/11 00:00:51;;;;;;;;;;;;;;;25.31;34.94;101324.63;5037141;28;752;-36
2021/05/11 00:03:16;;;;;;;;;;;;;;;25.30;34.99;101324.78;5037454;28;1902;-37
2021/05/11 00:05:42;;;;;;;;;;;;;;;25.24;35.22;101314.66;5036895;28;945;-37
2021/05/11 00:08:07;;;;;;;;;;;;;;;25.22;35.22;101311.25;5037059;28;767;-36
2021/05/11 00:10:32;;;;;;;;;;;;;;;25.18;35.37;101308.03;5037285;28;830;-38
2021/05/11 00:12:58;;;;;;;;;;;;;;;25.22;35.16;101295.97;5036839;28;887;-36
2021/05/11 00:15:23;;;;;;;;;;;;;;;25.18;35.29;101313.41;5037011;28;759;-38
2021/05/11 00:17:48;;;;;;;;;;;;;;;25.25;35.21;101305.56;5037502;28;790;-38
2021/05/11 00:20:14;;;;;;;;;;;;;;;25.17;35.34;101303.66;5036317;28;1064;-35
2021/05/11 00:22:40;;;;;;;;;;;;;;;25.19;35.34;101291.72;5036483;28;1965;-37
2021/05/11 00:25:05;;;;;;;;;;;;;;;25.18;35.25;101298.13;5037443;28;728;-34
2021/05/11 00:27:30;;;;;;;;;;;;;;;25.15;35.36;101287.66;5036825;28;759;-37
2021/05/11 00:29:56;;;;;;;;;;;;;;;25.20;35.23;101292.56;5036784;28;795;-37
2021/05/11 00:32:21;;;;;;;;;;;;;;;25.18;35.30;101281.97;5039579;28;1101;-37
2021/05/11 00:34:46;;;;;;;;;;;;;;;25.22;35.25;101281.66;5056652;28;724;-37
2021/05/11 00:37:12;;;;;;;;;;;;;;;25.19;35.27;101286.34;5038615;28;984;-37
2021/05/11 00:39:37;;;;;;;;;;;;;;;25.10;35.36;101273.81;5037020;28;786;-37
2021/05/11 00:42:02;;;;;;;;;;;;;;;25.16;35.32;101269.66;5036897;28;1890;-37
2021/05/11 00:44:28;;;;;;;;;;;;;;;25.19;35.33;101272.06;5036729;28;743;-37
2021/05/11 00:47:01;;;;;;;;;;;;;;;25.14;35.41;101271.69;5036544;28;794;-37
2021/05/11 00:49:28;;;;;;;;;;;;;;;25.10;35.37;101260.38;5036694;28;815;-37
2021/05/11 00:51:53;;;;;;;;;;;;;;;25.08;35.47;101254.28;5036124;28;953;-38
2021/05/11 00:54:19;;;;;;;;;;;;;;;25.09;35.45;101249.75;5037121;28;704;-37
2021/05/11 00:56:44;;;;;;;;;;;;;;;25.09;35.45;101255.16;5036514;28;790;-37
2021/05/11 00:59:15;;;;;;;;;;;;;;;25.10;35.40;101256.81;5051987;28;831;-37
2021/05/11 01:01:40;;;;;;;;;;;;;;;25.09;35.43;101255.97;5036528;28;1894;-37
2021/05/11 01:04:06;;;;;;;;;;;;;;;25.07;35.41;101260.69;5036458;28;875;-33
2021/05/11 01:06:31;;;;;;;;;;;;;;;25.04;35.54;101252.94;5035726;28;949;-37
2021/05/11 01:08:56;;;;;;;;;;;;;;;25.07;35.62;101255.31;5036264;28;976;-36
2021/05/11 01:11:21;;;;;;;;;;;;;;;25.07;35.40;101253.44;5036639;28;807;-34
2021/05/11 01:13:47;;;;;;;;;;;;;;;25.09;35.45;101257.84;5036093;28;820;-36
2021/05/11 01:16:12;;;;;;;;;;;;;;;25.07;35.46;101256.13;5035841;28;1207;-37
2021/05/11 01:18:38;;;;;;;;;;;;;;;25.02;35.54;101247.69;5036036;28;803;-37
2021/05/11 01:21:29;;;;;;;;;;;;;;;25.12;35.54;101244.06;5035266;28;1068;-37
2021/05/11 01:29:52;;;;;;;;;;;;;;;25.06;35.62;101235.59;5022419;28;1430;-37
2021/05/11 02:23:40;;;;;;;;;;;;;;;25.00;35.65;101220.09;5039205;28;664;-38
2021/05/11 02:26:05;;;;;;;;;;;;;;;24.98;35.80;101210.47;5039209;28;814;-38
2021/05/11 02:28:31;;;;;;;;;;;;;;;24.98;35.74;101216.69;5039223;28;791;-37
2021/05/11 02:30:56;;;;;;;;;;;;;;;25.01;35.82;101208.31;5038951;28;855;-36
2021/05/11 02:33:21;;;;;;;;;;;;;;;25.02;35.77;101203.78;5050044;28;1148;-37
2021/05/11 02:35:47;;;;;;;;;;;;;;;25.01;35.79;101207.47;5051733;28;939;-37
2021/05/11 02:38:12;;;;;;;;;;;;;;;24.97;35.79;101203.41;5038298;28;895;-37
2021/05/11 02:40:38;;;;;;;;;;;;;;;25.02;35.74;101209.16;5038816;28;839;-38
2021/05/11 02:43:07;;;;;;;;;;;;;;;24.99;35.83;101204.94;5038474;28;1902;-37
2021/05/11 02:45:33;;;;;;;;;;;;;;;25.00;35.83;101212.03;5039001;28;1535;-37
2021/05/11 02:47:59;;;;;;;;;;;;;;;25.02;35.82;101210.03;5038405;28;807;-37
2021/05/11 02:50:30;;;;;;;;;;;;;;;25.02;35.64;101215.41;5053713;28;1262;-34
2021/05/11 02:52:55;;;;;;;;;;;;;;;24.97;35.75;101208.78;5038736;28;850;-35
2021/05/11 02:55:21;;;;;;;;;;;;;;;24.98;35.80;101207.78;5038686;28;748;-37
2021/05/11 02:57:46;;;;;;;;;;;;;;;25.01;35.71;101215.53;5038383;28;747;-32
2021/05/11 03:00:12;;;;;;;;;;;;;;;24.99;35.81;101215.69;5038506;28;823;-37
2021/05/11 03:02:37;;;;;;;;;;;;;;;25.04;35.70;101215.25;5038986;28;1969;-36
2021/05/11 03:05:03;;;;;;;;;;;;;;;25.00;35.75;101216.53;5038171;28;1055;-31
2021/05/11 03:07:28;;;;;;;;;;;;;;;24.99;35.75;101204.09;5038471;28;1114;-35
2021/05/11 03:09:54;;;;;;;;;;;;;;;24.94;35.96;101208.09;5053643;28;1129;-34
2021/05/11 03:12:20;;;;;;;;;;;;;;;25.00;35.75;101212.03;5038129;28;843;-34
2021/05/11 03:14:45;;;;;;;;;;;;;;;24.92;36.00;101218.16;5038326;28;772;-35
2021/05/11 03:17:10;;;;;;;;;;;;;;;25.04;35.78;101226.00;5038251;28;728;-38
2021/05/11 03:19:36;;;;;;;;;;;;;;;25.29;35.05;101220.78;5053071;28;1143;-40
2021/05/11 03:22:01;;;;;;;;;;;;;;;25.07;35.33;101213.06;5037775;28;1910;-41
2021/05/11 03:24:26;;;;;;;;;;;;;;;25.02;35.34;101222.63;5038478;28;783;-40
2021/05/11 03:26:52;;;;;;;;;;;;;;;25.09;35.44;101220.16;5037993;28;779;-40
2021/05/11 03:29:17;;;;;;;;;;;;;;;25.09;35.36;101215.59;5038485;28;812;-39
2021/05/11 03:31:42;;;;;;;;;;;;;;;25.18;35.30;101219.19;5037873;28;797;-38
2021/05/11 03:34:07;;;;;;;;;;;;;;;25.10;35.55;101216.44;5054637;28;1116;-37
2021/05/11 03:36:33;;;;;;;;;;;;;;;25.00;35.61;101214.72;5044805;28;904;-39
2021/05/11 03:39:02;;;;;;;;;;;;;;;25.03;35.34;101208.16;5037852;28;764;-41
2021/05/11 03:41:31;;;;;;;;;;;;;;;25.02;29.46;101209.16;5037538;28;1926;-37
2021/05/11 03:44:32;;;;;;;;;;;;;;;24.81;28.05;101208.47;5037526;28;883;-38
2021/05/11 03:46:48;;;;;;;;;;;;;;;24.66;27.83;101218.09;5034046;28;1408;-41
2021/05/11 03:49:13;;;;;;;;;;;;;;;24.43;26.95;101210.50;5037035;28;763;-39
2021/05/11 03:51:38;;;;;;;;;;;;;;;24.39;27.84;101215.34;5049872;28;1003;-41
2021/05/11 03:54:04;;;;;;;;;;;;;;;24.37;28.09;101216.50;5057520;28;840;-41
2021/05/11 03:56:30;;;;;;;;;;;;;;;24.30;28.22;101209.06;5057283;28;733;-39
2021/05/11 03:58:55;;;;;;;;;;;;;;;24.23;28.20;101221.41;5040013;28;794;-39
2021/05/11 04:01:20;;;;;;;;;;;;;;;23.87;27.13;101218.63;5056519;28;1905;-38
2021/05/11 04:03:46;;;;;;;;;;;;;;;23.57;28.57;101221.44;5049470;28;739;-35
2021/05/11 04:06:11;;;;;;;;;;;;;;;23.36;28.93;101217.94;5053530;28;948;-47
2021/05/11 04:16:29;;;;;;;;;;;;;;;22.78;28.74;101224.25;5036990;28;644;-35
2021/05/11 04:18:54;;;;;;;;;;;;;;;22.96;28.30;101219.00;5056209;28;838;-41
2021/05/11 04:21:20;;;;;;;;;;;;;;;23.12;28.26;101231.84;5036067;28;1918;-41
2021/05/11 04:23:45;;;;;;;;;;;;;;;23.11;28.11;101224.78;5037431;28;759;-42
2021/05/11 04:26:11;;;;;;;;;;;;;;;23.21;28.02;101225.59;5038162;28;835;-38
2021/05/11 04:28:36;;;;;;;;;;;;;;;23.21;28.27;101232.81;5056780;28;776;-38
2021/05/11 04:31:02;;;;;;;;;;;;;;;23.20;28.46;101231.97;5056927;28;744;-42
2021/05/11 04:33:27;;;;;;;;;;;;;;;23.08;29.39;101225.94;5051576;28;1001;-38
2021/05/11 04:35:53;;;;;;;;;;;;;;;23.14;28.99;101232.53;5049385;28;936;-37
2021/05/11 04:38:18;;;;;;;;;;;;;;;23.21;28.91;101239.03;5036611;28;800;-35
2021/05/11 04:40:44;;;;;;;;;;;;;;;23.14;29.34;101247.81;5036609;28;852;-38
2021/05/11 04:43:09;;;;;;;;;;;;;;;23.13;28.97;101244.28;5036567;28;1957;-42
2021/05/11 04:45:34;;;;;;;;;;;;;;;23.02;29.08;101247.97;5036542;28;792;-41
2021/05/11 04:48:00;;;;;;;;;;;;;;;23.03;29.22;101244.28;5036291;28;1413;-41
2021/05/11 04:50:27;;;;;;;;;;;;;;;23.08;29.14;101239.34;5035775;28;976;-44
2021/05/11 04:52:52;;;;;;;;;;;;;;;23.19;29.14;101237.50;5036823;28;779;-40
2021/05/11 04:55:18;;;;;;;;;;;;;;;23.18;29.36;101230.41;5036616;28;867;-40
2021/05/11 04:57:43;;;;;;;;;;;;;;;23.22;29.44;101229.97;5036534;28;744;-38
2021/05/11 05:00:09;;;;;;;;;;;;;;;23.38;29.40;101228.53;5035689;28;922;-41
2021/05/11 05:02:36;;;;;;;;;;;;;;;23.28;29.82;101228.56;5036353;28;1901;-41
2021/05/11 05:05:02;;;;;;;;;;;;;;;23.34;30.14;101225.28;5036055;28;1023;-33
2021/05/11 05:07:27;;;;;;;;;;;;;;;23.39;30.02;101232.91;5036266;28;940;-42
2021/05/11 05:09:53;;;;;;;;;;;;;;;23.34;30.32;101224.44;5036364;28;763;-36
2021/05/11 05:12:18;;;;;;;;;;;;;;;23.31;30.38;101225.59;5036526;28;1150;-43
2021/05/11 05:14:43;;;;;;;;;;;;;;;23.38;30.58;101230.38;5036561;28;794;-34
2021/05/11 05:17:09;;;;;;;;;;;;;;;23.36;30.90;101242.09;5036267;28;823;-41
2021/05/11 05:19:34;;;;;;;;;;;;;;;23.37;31.02;101234.91;5035919;28;811;-40
2021/05/11 05:22:00;;;;;;;;;;;;;;;23.34;31.17;101230.66;5035777;28;1906;-42
2021/05/11 05:24:31;;;;;;;;;;;;;;;23.22;31.82;101237.19;5036310;28;755;-42
2021/05/11 05:27:02;;;;;;;;;;;;;;;23.40;31.62;101233.78;5035686;28;803;-41
2021/05/11 05:29:27;;;;;;;;;;;;;;;23.51;31.37;101230.06;5035924;28;855;-41
2021/05/11 05:31:52;;;;;;;;;;;;;;;23.46;30.91;101231.38;5036225;28;803;-33
2021/05/11 05:34:17;;;;;;;;;;;;;;;23.44;30.74;101235.19;5054737;28;1255;-41
2021/05/11 05:36:43;;;;;;;;;;;;;;;23.43;31.19;101218.22;5041991;28;987;-33
2021/05/11 05:39:08;;;;;;;;;;;;;;;23.48;31.15;101231.22;5036217;28;759;-43
2021/05/11 05:41:34;;;;;;;;;;;;;;;23.53;31.15;101231.63;5035958;28;1906;-34
2021/05/11 05:43:59;;;;;;;;;;;;;;;23.72;31.08;101233.38;5035802;28;827;-37
2021/05/11 05:46:25;;;;;;;;;;;;;;;23.89;30.88;101230.06;5036363;28;760;-38
2021/05/11 05:48:50;;;;;;;;;;;;;;;23.81;31.36;101237.03;5042402;28;1352;-39
2021/05/11 05:51:15;;;;;;;;;;;;;;;23.85;31.22;101229.50;5040157;28;822;-40
2021/05/11 05:53:42;;;;;;;;;;;;;;;23.90;30.95;101229.06;5035740;28;866;-41
2021/05/11 05:56:07;;;;;;;;;;;;;;;23.99;30.35;101228.16;5035681;28;831;-41
2021/05/11 05:58:33;;;;;;;;;;;;;;;23.07;30.87;101221.53;5035928;28;783;-38
2021/05/11 06:01:06;;;;;;;;;;;;;;;23.40;30.68;101223.03;5036159;28;735;-33
2021/05/11 06:06:06;;;;;;;;;;;;;;;23.71;30.34;101220.94;5035252;28;1026;-39
2021/05/11 06:08:31;;;;;;;;;;;;;;;23.94;29.83;101227.78;5036060;28;791;-41
2021/05/11 06:11:48;;;;;;;;;;;;;;;24.04;29.70;101217.81;5036429;28;796;-43
2021/05/11 06:13:48;;;;;;;;;;;;;;;24.02;29.90;101219.81;5019810;28;1365;-37
2021/05/11 06:18:57;;;;;;;;;;;;;;;22.21;32.29;101228.41;5038602;28;641;-40
2021/05/11 06:21:23;;;;;;;;;;;;;;;23.21;30.65;101230.13;5050247;28;1914;-32
2021/05/11 06:23:48;;;;;;;;;;;;;;;23.69;29.56;101231.00;5057452;28;768;-33
2021/05/11 06:26:14;;;;;;;;;;;;;;;23.79;29.50;101217.50;5059029;28;845;-39
2021/05/11 06:28:41;;;;;;;;;;;;;;;23.79;29.17;101222.88;5058973;28;818;-38
2021/05/11 06:31:06;;;;;;;;;;;;;;;23.80;28.94;101221.06;5051369;28;1462;-34
2021/05/11 06:33:32;;;;;;;;;;;;;;;23.94;28.97;101222.41;5056494;28;982;-35
2021/05/11 06:35:57;;;;;;;;;;;;;;;24.09;28.78;101211.97;5056121;28;896;-43
2021/05/11 06:38:22;;;;;;;;;;;;;;;24.11;28.50;101212.66;5059027;28;830;-42
2021/05/11 06:40:48;;;;;;;;;;;;;;;24.19;28.19;101218.16;5058712;28;920;-42
2021/05/11 06:43:17;;;;;;;;;;;;;;;24.22;27.94;101219.72;5058884;28;1963;-36
2021/05/11 06:47:00;;;;;;;;;;;;;;;24.03;27.52;101213.44;5058838;28;792;-37
2021/05/11 06:48:34;;;;;;;;;;;;;;;24.03;27.40;101210.75;5050410;28;1522;-36
2021/05/11 06:53:37;;;;;;;;;;;;;;;24.21;27.05;101208.13;5058862;28;796;-40
2021/05/11 06:56:03;;;;;;;;;;;;;;;24.22;26.49;101206.28;5040163;28;1014;-41
2021/05/11 06:58:28;;;;;;;;;;;;;;;24.24;26.80;101211.50;5059058;28;760;-38
2021/05/11 07:00:54;;;;;;;;;;;;;;;24.41;26.61;101216.03;5056115;28;738;-41
2021/05/11 07:03:19;;;;;;;;;;;;;;;24.32;26.60;101214.28;5039968;28;1967;-41
2021/05/11 07:05:45;;;;;;;;;;;;;;;24.37;26.49;101214.66;5057086;28;975;-42
2021/05/11 07:10:37;;;;;;;;;;;;;;;24.16;25.79;101207.72;5057872;28;648;-38
2021/05/11 07:13:12;;;;;;;;;;;;;;;24.19;25.83;101206.59;5058325;28;758;-43
2021/05/11 07:15:38;;;;;;;;;;;;;;;23.79;26.54;101204.06;5057814;28;886;-43
2021/05/11 07:18:07;;;;;;;;;;;;;;;24.07;26.23;101205.91;5056461;28;742;-41
2021/05/11 07:20:32;;;;;;;;;;;;;;;24.28;25.89;101194.06;5057315;28;1036;-40
2021/05/11 07:22:58;;;;;;;;;;;;;;;24.29;26.12;101206.50;5039464;28;1914;-39
2021/05/11 07:25:26;;;;;;;;;;;;;;;24.46;25.85;101205.66;5058364;28;787;-40
2021/05/11 07:28:41;;;;;;;;;;;;;;;24.42;25.63;101201.56;5046478;28;1255;-42
2021/05/11 07:30:36;;;;;;;;;;;;;;;24.59;25.60;101204.41;5039981;28;1496;-43
2021/05/11 07:33:06;;;;;;;;;;;;;;;24.35;25.25;101208.59;5057933;28;1152;-41
2021/05/11 07:35:31;;;;;;;;;;;;;;;24.55;24.83;101213.81;5056852;28;554;-37
2021/05/11 07:37:56;;;;;;;;;;;;;;;24.52;24.72;101214.97;5057352;28;773;-37
2021/05/11 07:40:22;;;;;;;;;;;;;;;24.45;25.22;101211.19;5057541;28;851;-35
2021/05/11 07:42:48;;;;;;;;;;;;;;;24.49;26.82;101204.50;5047997;28;1898;-42
2021/05/11 07:45:20;;;;;;;;;;;;;;;24.56;25.67;101202.88;5039490;28;1192;-41
2021/05/11 07:48:17;;;;;;;;;;;;;;;24.54;25.25;101198.69;5057603;28;818;-42
2021/05/11 08:17:26;;;;;;;;;;;;;;;24.66;24.87;101201.94;5056826;28;585;-37
2021/05/11 08:29:54;;;;;;;;;;;;;;;24.54;24.00;101198.69;5057310;28;787;-43
2021/05/11 08:32:19;;;;;;;;;;;;;;;24.26;23.29;101204.97;5056704;28;803;-43
2021/05/11 08:34:45;;;;;;;;;;;;;;;24.36;22.80;101198.69;5056609;28;867;-44
2021/05/11 08:37:15;;;;;;;;;;;;;;;24.40;22.19;101197.38;5056769;28;787;-41
2021/05/11 08:39:41;;;;;;;;;;;;;;;23.98;23.24;101196.91;5056907;28;790;-38
2021/05/11 08:42:06;;;;;;;;;;;;;;;22.72;23.89;101204.22;5044326;28;1968;-43
2021/05/11 08:44:31;;;;;;;;;;;;;;;22.73;23.91;101204.09;5055278;28;836;-38
2021/05/11 08:46:57;;;;;;;;;;;;;;;23.63;23.44;101198.50;5056728;28;739;-38
2021/05/11 08:49:22;;;;;;;;;;;;;;;23.01;24.29;101206.00;5071913;28;1465;-40
2021/05/11 08:51:55;;;;;;;;;;;;;;;23.68;23.48;101202.44;5057116;28;740;-40
2021/05/11 09:23:43;;;;;;;;;;;;;;;24.25;23.26;101179.09;5029298;28;1977;-40
2021/05/11 09:26:20;;;;;;;;;;;;;;;24.34;22.92;101177.31;5035896;28;767;-37
2021/05/11 09:28:49;;;;;;;;;;;;;;;24.21;22.87;101175.00;5037384;28;952;-42
2021/05/11 10:48:20;;;;;;;;;;;;;;;25.09;23.43;101140.22;5038408;28;862;-39
2021/05/11 10:50:49;;;;;;;;;;;;;;;25.00;22.55;101141.19;5038823;28;767;-40
2021/05/11 10:53:33;;;;;;;;;;;;;;;25.14;23.09;101129.81;5039084;28;748;-39
2021/05/11 10:56:17;;;;;;;;;;;;;;;25.11;23.10;101132.84;5038197;28;831;-41
2021/05/11 10:59:01;;;;;;;;;;;;;;;25.16;23.56;101127.81;5053902;28;968;-40
2021/05/11 11:01:33;;;;;;;;;;;;;;;24.84;21.55;101131.97;5057697;28;960;-40
2021/05/11 11:04:08;;;;;;;;;;;;;;;24.62;21.43;101133.34;5058252;28;830;-38
2021/05/11 11:06:52;;;;;;;;;;;;;;;24.61;21.13;101134.34;5058496;28;799;-39
2021/05/11 11:09:17;;;;;;;;;;;;;;;25.05;21.48;101128.09;5058145;28;775;-41
2021/05/11 11:11:43;;;;;;;;;;;;;;;25.12;21.00;101131.84;5058062;28;948;-38
2021/05/11 11:14:08;;;;;;;;;;;;;;;25.25;21.51;101128.72;5040692;28;943;-39
2021/05/11 11:16:33;;;;;;;;;;;;;;;25.31;25.57;101128.06;5057932;28;738;-38
2021/05/11 11:19:06;;;;;;;;;;;;;;;25.56;26.38;101128.16;5058439;28;986;-41
2021/05/11 11:23:57;;;;;;;;;;;;;;;25.73;26.73;101117.47;5040057;28;1323;-42
2021/05/11 11:26:29;;;;;;;;;;;;;;;25.81;26.33;101122.00;5058188;28;756;-42
2021/05/11 11:28:59;;;;;;;;;;;;;;;25.86;26.30;101116.16;5039612;28;960;-41
2021/05/11 11:31:25;;;;;;;;;;;;;;;25.89;26.38;101115.81;5037972;28;782;-40
2021/05/11 11:33:50;;;;;;;;;;;;;;;25.89;26.71;101116.63;5038311;28;783;-46
2021/05/11 11:36:31;;;;;;;;;;;;;;;25.88;26.95;101116.81;5037906;28;823;-42
2021/05/11 11:38:57;;;;;;;;;;;;;;;25.87;27.27;101115.13;5037795;28;783;-42
2021/05/11 11:41:25;;;;;;;;;;;;;;;25.83;27.51;101119.16;5037980;28;811;-40
2021/05/11 11:43:51;;;;;;;;;;;;;;;26.02;27.27;101108.09;5037575;28;1967;-40
2021/05/11 11:46:29;;;;;;;;;;;;;;;26.06;26.91;101111.28;5037522;28;780;-45
2021/05/11 11:48:56;;;;;;;;;;;;;;;25.57;22.34;101102.06;5060486;28;771;-41
2021/05/11 11:51:28;;;;;;;;;;;;;;;25.56;22.10;101101.22;5057567;28;795;-43
2021/05/11 11:59:35;;;;;;;;;;;;;;;25.60;23.64;101090.97;5037570;28;772;-40
2021/05/11 12:02:01;;;;;;;;;;;;;;;25.54;26.34;101095.13;5036714;28;1898;-39
2021/05/11 12:04:27;;;;;;;;;;;;;;;25.69;25.35;101094.56;5037219;28;747;-45
2021/05/11 12:06:53;;;;;;;;;;;;;;;25.62;26.69;101093.50;5037758;28;792;-42
2021/05/11 12:09:21;;;;;;;;;;;;;;;25.67;23.12;101083.91;5036176;28;871;-42
2021/05/11 12:11:46;;;;;;;;;;;;;;;25.66;24.52;101086.78;5036589;28;948;-48
2021/05/11 12:14:12;;;;;;;;;;;;;;;25.65;26.01;101077.88;5052742;28;830;-44
2021/05/11 12:16:44;;;;;;;;;;;;;;;25.69;25.69;101075.69;5051728;28;812;-42
2021/05/11 12:19:15;;;;;;;;;;;;;;;25.63;21.39;101073.63;5036936;28;791;-44
2021/05/11 12:21:50;;;;;;;;;;;;;;;25.66;20.79;101070.63;5037779;28;1977;-37
2021/05/11 12:24:16;;;;;;;;;;;;;;;25.64;24.11;101064.56;5056281;28;774;-40
2021/05/11 12:26:42;;;;;;;;;;;;;;;25.63;21.26;101066.41;5056048;28;943;-42
2021/05/11 12:29:07;;;;;;;;;;;;;;;25.67;23.39;101064.22;5056916;28;872;-44
2021/05/11 12:31:39;;;;;;;;;;;;;;;25.66;22.04;101062.53;5056588;28;779;-37
2021/05/11 12:34:06;;;;;;;;;;;;;;;25.50;20.11;101057.94;5057037;28;811;-34
2021/05/11 12:36:31;;;;;;;;;;;;;;;25.53;20.14;101060.28;5056644;28;772;-42
2021/05/11 12:39:35;;;;;;;;;;;;;;;25.63;22.20;101055.63;5053664;28;771;-39
2021/05/11 12:42:20;;;;;;;;;;;;;;;25.67;24.02;101056.16;5001507;28;1967;-38
2021/05/11 12:44:46;;;;;;;;;;;;;;;25.64;24.56;101059.19;5057032;28;771;-38
2021/05/11 12:47:13;;;;;;;;;;;;;;;25.70;23.12;101052.28;5056432;28;746;-39
2021/05/11 12:49:39;;;;;;;;;;;;;;;25.73;23.65;101046.53;5056289;28;818;-40
2021/05/11 12:52:09;;;;;;;;;;;;;;;25.58;20.94;101051.72;5056593;28;748;-40
2021/05/11 13:16:30;;;;;;;;;;;;;;;25.53;22.99;101033.34;5055606;28;684;-41
2021/05/11 13:31:58;;;;;;;;;;;;;;;25.58;21.71;101014.00;5056475;28;779;-40
2021/05/11 13:34:23;;;;;;;;;;;;;;;25.63;20.38;101017.06;5055738;28;811;-40
2021/05/11 13:36:48;;;;;;;;;;;;;;;25.59;21.96;101008.44;5055652;28;821;-41
2021/05/11 13:39:13;;;;;;;;;;;;;;;25.63;20.50;101009.84;5056032;28;822;-40
2021/05/11 13:41:39;;;;;;;;;;;;;;;25.62;21.69;101015.38;5055411;28;1979;-42
2021/05/11 13:44:05;;;;;;;;;;;;;;;25.55;20.45;101013.34;5045890;28;1003;-42
2021/05/11 13:46:31;;;;;;;;;;;;;;;25.51;20.02;101003.03;5054343;28;850;-38
2021/05/11 13:48:56;;;;;;;;;;;;;;;25.55;22.87;100999.03;5056302;28;808;-41
2021/05/11 13:51:22;;;;;;;;;;;;;;;25.55;21.70;101005.25;5056359;28;798;-39
2021/05/11 13:53:50;;;;;;;;;;;;;;;25.60;22.25;101003.91;5055023;28;779;-38
2021/05/11 14:04:34;;;;;;;;;;;;;;;25.59;24.23;100983.38;5031387;28;1137;-39
2021/05/11 14:06:59;;;;;;;;;;;;;;;25.60;26.02;100988.59;5055104;28;779;-40
2021/05/11 14:09:24;;;;;;;;;;;;;;;25.50;25.39;100986.06;5055556;28;805;-43
2021/05/11 14:11:50;;;;;;;;;;;;;;;25.57;25.31;100988.94;5054103;28;1129;-38
2021/05/11 14:14:15;;;;;;;;;;;;;;;25.69;26.05;100989.47;5035570;28;800;-38
2021/05/11 14:16:41;;;;;;;;;;;;;;;25.61;24.51;100990.25;5035782;28;771;-39
2021/05/11 14:19:06;;;;;;;;;;;;;;;25.64;24.69;100986.44;5035221;28;843;-38
2021/05/11 14:21:31;;;;;;;;;;;;;;;25.59;24.72;100983.38;5035164;28;1143;-38
2021/05/11 14:23:58;;;;;;;;;;;;;;;25.61;25.79;100984.06;5054932;28;1902;-45
2021/05/11 14:26:23;;;;;;;;;;;;;;;25.59;25.51;100983.38;5055422;28;766;-41
2021/05/11 14:28:49;;;;;;;;;;;;;;;25.51;27.01;100985.03;5054540;28;952;-42
2021/05/11 14:31:14;;;;;;;;;;;;;;;25.57;23.21;100983.53;5055657;28;787;-40
2021/05/11 14:33:39;;;;;;;;;;;;;;;25.57;25.83;100978.16;5059116;28;740;-44
2021/05/11 14:36:07;;;;;;;;;;;;;;;25.60;25.43;100975.13;5058684;28;796;-41
2021/05/11 14:38:32;;;;;;;;;;;;;;;25.69;25.36;100967.94;5058735;28;734;-43
2021/05/11 14:41:02;;;;;;;;;;;;;;;25.66;26.14;100968.25;5059213;28;910;-44
2021/05/11 14:43:27;;;;;;;;;;;;;;;25.74;23.65;100965.53;5058243;28;1901;-38
2021/05/11 14:45:52;;;;;;;;;;;;;;;25.76;24.29;100968.06;5058519;28;863;-38
2021/05/11 14:48:18;;;;;;;;;;;;;;;25.76;23.83;100965.38;5059024;28;822;-43
2021/05/11 14:50:43;;;;;;;;;;;;;;;25.82;23.59;100964.72;5059014;28;819;-40
2021/05/11 14:53:08;;;;;;;;;;;;;;;25.74;22.41;100957.47;5058546;28;783;-39
2021/05/11 14:55:34;;;;;;;;;;;;;;;25.64;20.90;100954.94;5059160;28;812;-38
2021/05/11 14:57:59;;;;;;;;;;;;;;;25.64;21.92;100957.63;5058429;28;1006;-36
2021/05/11 15:00:24;;;;;;;;;;;;;;;25.64;22.06;100956.81;5051514;28;1104;-34
2021/05/11 15:02:49;;;;;;;;;;;;;;;25.64;22.79;100948.72;5038793;28;1898;-39
2021/05/11 15:05:15;;;;;;;;;;;;;;;25.65;21.37;100948.56;5038536;28;831;-37
2021/05/11 15:07:40;;;;;;;;;;;;;;;25.60;21.91;100950.03;5038717;28;834;-36
2021/05/11 15:10:06;;;;;;;;;;;;;;;25.69;22.35;100949.06;5038822;28;783;-35
2021/05/11 15:12:31;;;;;;;;;;;;;;;25.70;23.60;100947.19;5045274;28;944;-32
2021/05/11 15:14:57;;;;;;;;;;;;;;;25.64;23.44;100944.16;5058214;28;888;-36
2021/05/11 15:19:51;;;;;;;;;;;;;;;25.68;22.08;100944.66;5058441;28;1079;-36
2021/05/11 15:22:16;;;;;;;;;;;;;;;25.68;23.28;100936.59;5052036;28;1913;-37
2021/05/11 15:24:42;;;;;;;;;;;;;;;25.59;23.08;100933.00;5038167;28;773;-32
2021/05/11 15:27:07;;;;;;;;;;;;;;;25.64;23.39;100928.00;5041495;28;975;-34
2021/05/11 15:29:33;;;;;;;;;;;;;;;25.62;23.23;100927.31;5055603;28;802;-35
2021/05/11 15:31:58;;;;;;;;;;;;;;;25.61;22.90;100932.88;5056970;28;850;-35
2021/05/11 15:34:24;;;;;;;;;;;;;;;25.60;23.14;100928.47;5057877;28;1155;-36
2021/05/11 15:36:49;;;;;;;;;;;;;;;25.61;22.86;100938.25;5057528;28;545;-37
2021/05/11 15:39:15;;;;;;;;;;;;;;;25.62;23.04;100930.00;5057899;28;1068;-36
2021/05/11 15:41:41;;;;;;;;;;;;;;;25.64;22.68;100935.25;5057938;28;1898;-38
2021/05/11 15:44:07;;;;;;;;;;;;;;;25.71;23.97;100925.47;5056686;28;775;-32
2021/05/11 15:46:32;;;;;;;;;;;;;;;25.37;23.47;100926.44;5057718;28;831;-40
2021/05/11 15:48:57;;;;;;;;;;;;;;;25.38;22.98;100925.44;5057877;28;771;-40
2021/05/11 15:51:22;;;;;;;;;;;;;;;25.47;22.49;100921.75;5057609;28;866;-40
2021/05/11 15:53:48;;;;;;;;;;;;;;;25.29;21.99;100928.13;5057842;28;809;-42
2021/05/11 15:56:13;;;;;;;;;;;;;;;25.31;21.92;100925.25;5055989;28;963;-36
2021/05/11 15:58:38;;;;;;;;;;;;;;;25.36;21.98;100922.91;5057119;28;1019;-40
2021/05/11 16:01:04;;;;;;;;;;;;;;;25.29;21.79;100917.34;5057555;28;756;-33
2021/05/11 16:03:29;;;;;;;;;;;;;;;25.19;20.95;100919.38;5057473;28;1913;-41
2021/05/11 16:05:54;;;;;;;;;;;;;;;25.28;24.13;100921.06;5057225;28;966;-40
2021/05/11 16:08:19;;;;;;;;;;;;;;;25.56;26.29;100925.28;5057467;28;820;-41
2021/05/11 16:10:45;;;;;;;;;;;;;;;25.69;26.43;100919.44;5057414;28;856;-41
2021/05/11 16:13:11;;;;;;;;;;;;;;;25.59;26.70;100924.94;5056845;28;979;-41
2021/05/11 16:15:36;;;;;;;;;;;;;;;25.56;27.12;100917.19;5056814;28;849;-41
2021/05/11 16:18:03;;;;;;;;;;;;;;;25.79;26.69;100920.06;5057336;28;846;-41
2021/05/11 16:20:28;;;;;;;;;;;;;;;25.75;27.19;100913.34;5056892;28;1291;-39
2021/05/11 16:22:54;;;;;;;;;;;;;;;25.82;27.38;100921.59;5041313;28;1910;-39
2021/05/11 16:25:19;;;;;;;;;;;;;;;25.79;27.52;100920.06;5037215;28;828;-39
2021/05/11 16:27:44;;;;;;;;;;;;;;;25.78;27.53;100915.72;5036477;28;1132;-40
2021/05/11 16:30:10;;;;;;;;;;;;;;;25.83;27.51;100915.19;5037285;28;807;-41
2021/05/11 16:32:37;;;;;;;;;;;;;;;25.89;27.60;100911.00;5037135;28;724;-41
2021/05/11 16:35:02;;;;;;;;;;;;;;;25.85;27.71;100915.03;5036226;28;799;-39
2021/05/11 16:37:27;;;;;;;;;;;;;;;25.91;27.74;100908.94;5036942;28;768;-39
2021/05/11 16:39:53;;;;;;;;;;;;;;;25.89;28.03;100913.69;5036997;28;850;-38
2021/05/11 16:42:18;;;;;;;;;;;;;;;25.82;28.23;100912.66;5041342;28;1910;-40
2021/05/11 16:44:43;;;;;;;;;;;;;;;25.88;28.13;100915.53;5056677;28;805;-39
2021/05/11 16:47:08;;;;;;;;;;;;;;;25.86;28.30;100912.16;5056777;28;843;-40
2021/05/11 16:49:36;;;;;;;;;;;;;;;25.83;28.30;100911.66;5056470;28;767;-38
2021/05/11 16:52:01;;;;;;;;;;;;;;;25.79;28.31;100909.28;5056735;28;775;-41
2021/05/11 16:54:26;;;;;;;;;;;;;;;25.85;28.21;100909.63;5056710;28;798;-41
2021/05/11 16:56:52;;;;;;;;;;;;;;;25.88;28.22;100918.22;5047628;28;1052;-39
2021/05/11 16:59:18;;;;;;;;;;;;;;;25.80;28.59;100905.59;5056606;28;801;-41
2021/05/11 17:01:44;;;;;;;;;;;;;;;25.83;28.63;100903.56;5056459;28;1902;-39
2021/05/11 17:04:09;;;;;;;;;;;;;;;25.79;28.67;100906.59;5056337;28;812;-38
2021/05/11 17:06:34;;;;;;;;;;;;;;;25.76;28.91;100903.41;5056522;28;810;-39
2021/05/11 17:09:06;;;;;;;;;;;;;;;25.74;28.97;100900.88;5056636;28;874;-38
2021/05/11 17:11:32;;;;;;;;;;;;;;;25.80;28.85;100900.22;5056134;28;736;-40
2021/05/11 17:14:01;;;;;;;;;;;;;;;25.75;28.92;100905.28;5055862;28;1446;-41
2021/05/11 17:16:26;;;;;;;;;;;;;;;25.76;29.44;100900.72;5056274;28;784;-40
2021/05/11 17:18:52;;;;;;;;;;;;;;;25.72;29.31;100905.63;5055535;28;899;-38
2021/05/11 17:21:18;;;;;;;;;;;;;;;25.71;29.40;100901.22;5056053;28;1224;-40
2021/05/11 17:23:43;;;;;;;;;;;;;;;25.66;29.41;100904.44;5056361;28;1909;-40
2021/05/11 17:26:08;;;;;;;;;;;;;;;25.67;29.36;100895.31;5056038;28;803;-39